Time;durP1;ratioP1;P1;durP2;ratioP2;P2;SDS_P1;SDS_P2;PMS_P1;PMS_P2;Temp;Humidity;BMP_temperature;BMP_pressure;BME280_temperature;BME280_humidity;BME280_pressure;Samples;Min_cycle;Max_cycle;Signal;HPM_P1;HPM_P2
2022/07/24 00:00:34;;;;;;;8.82;8.02;;;;;;;23.37;69.35;98924.34;5049942;27;103224;-75
2022/07/24 00:03:03;;;;;;;8.55;7.75;;;;;;;23.39;68.78;98927.72;5046039;27;102645;-75
2022/07/24 00:05:32;;;;;;;10.48;9.48;;;;;;;23.32;69.24;98934.84;5046889;27;104208;-75
2022/07/24 00:08:00;;;;;;;10.32;9.52;;;;;;;23.20;69.96;98941.72;5048955;27;104147;-74
2022/07/24 00:10:31;;;;;;;8.70;7.93;;;;;;;23.26;69.92;98946.38;5043678;27;103833;-74
2022/07/24 00:12:58;;;;;;;11.07;10.07;;;;;;;23.26;69.91;98943.69;5051540;27;102636;-74
2022/07/24 00:15:26;;;;;;;9.05;8.27;;;;;;;23.24;70.18;98943.03;5045852;27;104147;-75
2022/07/24 00:17:54;;;;;;;8.38;7.78;;;;;;;23.25;69.62;98943.84;5039357;27;104156;-75
2022/07/24 00:20:22;;;;;;;8.75;8.00;;;;;;;23.28;69.79;98941.63;5046650;27;104594;-75
2022/07/24 00:22:50;;;;;;;12.35;11.07;;;;;;;23.24;70.01;98947.59;5047937;27;102864;-75
2022/07/24 00:25:18;;;;;;;11.73;10.63;;;;;;;23.23;69.88;98930.56;5044412;27;102701;-75
2022/07/24 00:27:48;;;;;;;10.30;9.48;;;;;;;23.22;69.27;98934.28;5046079;27;104011;-75
2022/07/24 00:30:16;;;;;;;10.20;9.30;;;;;;;23.18;69.85;98938.38;5050680;27;103223;-75
2022/07/24 00:32:43;;;;;;;10.73;9.73;;;;;;;23.11;70.01;98934.72;5048609;27;102648;-75
2022/07/24 00:35:13;;;;;;;12.35;11.30;;;;;;;22.82;72.23;98942.78;5044129;27;104431;-75
2022/07/24 00:37:41;;;;;;;12.02;10.90;;;;;;;22.42;73.88;98943.94;5043533;27;104358;-75
2022/07/24 00:40:09;;;;;;;11.82;10.82;;;;;;;22.00;75.50;98936.31;5039724;27;103155;-75
2022/07/24 00:42:37;;;;;;;11.80;10.70;;;;;;;21.89;75.91;98937.53;5043333;27;102675;-75
2022/07/24 00:45:07;;;;;;;12.00;10.90;;;;;;;21.91;76.04;98937.38;5042592;27;103038;-74
2022/07/24 00:47:50;;;;;;;11.70;10.60;;;;;;;21.98;75.83;98943.69;5041582;27;103248;-75
2022/07/24 00:50:21;;;;;;;10.13;9.23;;;;;;;21.96;75.64;98934.97;5042660;27;103220;-74
2022/07/24 00:52:50;;;;;;;11.45;10.45;;;;;;;22.11;74.84;98941.28;5043564;27;102741;-75
2022/07/24 00:55:21;;;;;;;11.38;10.32;;;;;;;21.97;75.92;98938.53;5048318;27;103612;-75
2022/07/24 00:57:50;;;;;;;10.23;9.38;;;;;;;22.04;75.40;98940.31;5047343;27;104034;-75
2022/07/24 01:00:21;;;;;;;8.98;8.27;;;;;;;22.11;74.25;98943.97;5040270;27;103283;-74
2022/07/24 01:02:50;;;;;;;10.27;9.38;;;;;;;22.21;73.15;98941.03;5039228;27;104868;-74
2022/07/24 01:05:19;;;;;;;9.38;8.68;;;;;;;22.12;74.16;98942.94;5039582;27;103917;-74
2022/07/24 01:07:47;;;;;;;7.50;6.90;;;;;;;22.21;72.58;98939.19;5042080;27;103223;-74
2022/07/24 01:10:15;;;;;;;9.80;9.07;;;;;;;22.27;73.68;98943.88;5049426;27;104100;-74
2022/07/24 01:12:43;;;;;;;11.48;10.57;;;;;;;22.16;74.62;98938.91;5049457;27;102719;-74
2022/07/24 01:15:13;;;;;;;10.88;9.98;;;;;;;22.11;74.65;98938.59;5050842;27;103951;-75
2022/07/24 01:17:43;;;;;;;13.02;11.93;;;;;;;21.68;79.13;98939.13;5067483;27;104330;-74
2022/07/24 01:20:11;;;;;;;14.10;12.75;;;;;;;21.39;79.96;98940.59;5050132;27;103179;-75
2022/07/24 01:22:41;;;;;;;12.13;11.02;;;;;;;21.64;78.36;98940.50;5050378;27;102654;-75
2022/07/24 01:25:10;;;;;;;11.25;10.35;;;;;;;21.73;77.40;98947.50;5046832;27;102694;-75
2022/07/24 01:27:39;;;;;;;12.45;11.35;;;;;;;21.79;77.26;98941.44;5051931;27;103312;-75
2022/07/24 01:30:08;;;;;;;13.45;12.23;;;;;;;21.64;77.77;98935.94;5060274;27;103254;-75
2022/07/24 01:32:37;;;;;;;13.38;12.18;;;;;;;21.64;77.89;98935.13;5047241;27;102619;-75
2022/07/24 01:35:06;;;;;;;12.05;10.95;;;;;;;21.59;77.63;98934.78;5055647;27;104114;-74
2022/07/24 01:37:34;;;;;;;10.13;9.35;;;;;;;21.60;77.79;98939.19;5049343;27;103287;-75
2022/07/24 01:40:04;;;;;;;13.52;12.27;;;;;;;21.37;79.03;98944.47;5049417;27;103201;-75
2022/07/24 01:42:32;;;;;;;13.93;12.60;;;;;;;21.19;80.25;98952.75;5050140;27;102705;-75
2022/07/24 01:44:59;;;;;;;12.23;11.00;;;;;;;21.24;79.93;98945.03;5055449;27;102695;-74
2022/07/24 01:47:27;;;;;;;9.27;8.48;;;;;;;21.37;78.03;98939.94;5051621;27;103767;-75
2022/07/24 01:49:55;;;;;;;13.45;12.13;;;;;;;21.50;77.19;98935.88;5052042;27;103181;-75
2022/07/24 01:52:25;;;;;;;12.05;10.95;;;;;;;21.45;78.16;98941.75;5046459;27;102860;-74
2022/07/24 01:54:53;;;;;;;11.25;10.15;;;;;;;21.23;79.87;98940.66;5046099;27;103034;-74
2022/07/24 01:57:22;;;;;;;11.13;10.13;;;;;;;21.33;77.91;98937.78;5046342;27;103821;-75
2022/07/24 01:59:50;;;;;;;14.30;12.98;;;;;;;21.14;80.05;98944.38;5053061;27;103203;-75
2022/07/24 02:02:18;;;;;;;10.95;10.05;;;;;;;21.17;79.51;98938.66;5044944;27;104020;-73
2022/07/24 02:04:46;;;;;;;10.05;9.25;;;;;;;21.24;78.39;98939.66;5044360;27;102638;-73
2022/07/24 02:07:13;;;;;;;12.13;11.02;;;;;;;21.32;77.66;98936.09;5059054;27;102987;-73
2022/07/24 02:09:41;;;;;;;8.90;8.20;;;;;;;21.23;78.52;98932.59;5051708;27;103268;-73
2022/07/24 02:12:09;;;;;;;13.52;12.32;;;;;;;21.19;79.56;98925.06;5052831;27;102740;-76
2022/07/24 02:14:39;;;;;;;13.00;11.85;;;;;;;21.08;80.13;98931.63;5052779;27;104425;-75
2022/07/24 02:17:07;;;;;;;13.23;11.90;;;;;;;20.91;81.31;98931.81;5045202;27;103406;-76
2022/07/24 02:19:35;;;;;;;14.20;12.85;;;;;;;20.50;84.04;98925.63;5051746;27;103256;-76
2022/07/24 02:22:03;;;;;;;13.20;12.13;;;;;;;20.47;83.99;98929.47;5048426;27;102642;-76
2022/07/24 02:24:31;;;;;;;13.55;12.45;;;;;;;20.42;84.09;98936.34;5045956;27;104284;-73
2022/07/24 02:26:58;;;;;;;15.70;14.30;;;;;;;20.13;86.20;98928.75;5047363;27;104603;-75
2022/07/24 02:29:30;;;;;;;16.95;15.30;;;;;;;20.06;86.36;98931.28;5044584;27;103160;-75
2022/07/24 02:32:00;;;;;;;15.77;14.27;;;;;;;20.11;86.60;98939.66;5048408;27;102614;-76
2022/07/24 02:34:28;;;;;;;15.90;14.40;;;;;;;20.33;84.55;98934.66;5047947;27;103917;-75
2022/07/24 02:36:56;;;;;;;13.57;12.20;;;;;;;20.59;81.97;98938.03;5051785;27;103976;-75
2022/07/24 02:39:24;;;;;;;15.35;13.90;;;;;;;20.56;83.12;98933.84;5048380;27;103519;-75
2022/07/24 02:41:52;;;;;;;16.20;14.70;;;;;;;20.40;83.98;98935.69;5051563;27;102602;-73
2022/07/24 02:44:19;;;;;;;16.80;15.23;;;;;;;20.39;83.77;98939.38;5056546;27;104294;-73
2022/07/24 02:46:47;;;;;;;15.63;14.30;;;;;;;20.36;83.77;98937.03;5042490;27;104246;-73
2022/07/24 02:49:16;;;;;;;15.02;13.73;;;;;;;20.26;85.42;98941.72;5048283;27;104138;-72
2022/07/24 02:51:44;;;;;;;18.55;16.75;;;;;;;20.06;86.74;98933.97;5047124;27;102759;-73
2022/07/24 02:54:13;;;;;;;15.63;14.13;;;;;;;19.97;87.56;98934.94;5046245;27;102834;-73
2022/07/24 02:56:41;;;;;;;15.15;13.75;;;;;;;20.13;85.81;98937.63;5043295;27;103330;-74
2022/07/24 02:59:09;;;;;;;13.70;12.50;;;;;;;20.05;86.64;98934.94;5046136;27;103209;-75
2022/07/24 03:01:37;;;;;;;19.10;17.50;;;;;;;19.69;89.57;98944.22;5046364;27;102619;-73
2022/07/24 03:04:05;;;;;;;17.02;15.52;;;;;;;19.68;90.03;98937.19;5046109;27;103574;-72
2022/07/24 03:06:35;;;;;;;19.00;17.10;;;;;;;19.73;90.20;98939.41;5044423;27;103350;-72
2022/07/24 03:09:04;;;;;;;17.40;15.85;;;;;;;19.70;90.59;98945.94;5042606;27;103208;-75
2022/07/24 03:11:32;;;;;;;18.42;16.52;;;;;;;19.65;91.22;98937.50;5042938;27;102596;-73
2022/07/24 03:14:00;;;;;;;19.42;17.65;;;;;;;19.51;91.95;98943.47;5053928;27;104248;-73
2022/07/24 03:16:28;;;;;;;17.90;16.40;;;;;;;19.44;92.53;98939.78;5056582;27;103852;-73
2022/07/24 03:18:56;;;;;;;16.30;14.90;;;;;;;19.61;91.84;98949.56;5055400;27;104199;-72
2022/07/24 03:21:24;;;;;;;13.93;12.77;;;;;;;19.79;90.38;98934.19;5049769;27;102760;-73
2022/07/24 03:24:13;;;;;;;14.20;12.85;;;;;;;20.00;86.69;98941.81;5044780;27;104291;-72
2022/07/24 03:26:41;;;;;;;14.10;12.90;;;;;;;20.04;86.97;98938.63;5051445;27;106296;-72
2022/07/24 03:29:09;;;;;;;15.50;14.13;;;;;;;20.01;87.46;98943.50;5046568;27;103197;-75
2022/07/24 03:31:37;;;;;;;15.80;14.40;;;;;;;20.00;87.18;98942.66;5041061;27;104384;-72
2022/07/24 03:34:06;;;;;;;10.93;10.02;;;;;;;20.07;85.88;98945.53;5051124;27;102725;-73
2022/07/24 03:36:34;;;;;;;12.85;11.55;;;;;;;20.13;84.99;98943.00;5046067;27;103768;-72
2022/07/24 03:39:03;;;;;;;16.80;15.30;;;;;;;20.01;86.86;98944.34;5045091;27;103216;-74
2022/07/24 03:41:33;;;;;;;13.18;12.00;;;;;;;19.99;87.51;98946.31;5050763;27;102906;-74
2022/07/24 03:44:01;;;;;;;11.35;10.35;;;;;;;20.10;85.69;98943.31;5048721;27;102889;-72
2022/07/24 03:46:29;;;;;;;9.85;8.95;;;;;;;20.18;84.25;98945.22;5045966;27;103267;-72
2022/07/24 03:48:57;;;;;;;14.55;13.15;;;;;;;20.08;85.93;98945.34;5048477;27;103194;-72
2022/07/24 03:51:28;;;;;;;17.88;16.27;;;;;;;19.95;87.69;98947.69;5051898;27;102601;-72
2022/07/24 03:53:56;;;;;;;13.63;12.52;;;;;;;19.99;87.58;98951.69;5049214;27;104291;-73
2022/07/24 03:56:24;;;;;;;13.80;12.60;;;;;;;20.01;87.63;98954.22;5044140;27;104469;-75
2022/07/24 03:58:54;;;;;;;11.02;10.13;;;;;;;20.10;85.35;98948.69;5043630;27;103745;-73
2022/07/24 04:01:22;;;;;;;10.57;9.65;;;;;;;20.22;83.18;98958.13;5045809;27;102946;-72
2022/07/24 04:03:50;;;;;;;12.57;11.38;;;;;;;20.24;82.97;98960.63;5045555;27;102763;-73
2022/07/24 04:06:18;;;;;;;14.43;13.02;;;;;;;20.24;82.74;98961.50;5049247;27;103286;-73
2022/07/24 04:08:47;;;;;;;13.80;12.43;;;;;;;20.18;83.42;98962.13;5042894;27;103309;-68
2022/07/24 04:11:15;;;;;;;16.67;15.07;;;;;;;20.03;86.25;98963.78;5044732;27;104497;-68
2022/07/24 04:13:42;;;;;;;16.58;15.20;;;;;;;19.65;89.89;98964.31;5044451;27;102675;-69
2022/07/24 04:16:12;;;;;;;18.73;16.70;;;;;;;19.60;92.05;98966.63;5042608;27;104139;-68
2022/07/24 04:18:40;;;;;;;17.25;15.75;;;;;;;19.57;92.62;98966.97;5044941;27;102929;-68
2022/07/24 04:21:08;;;;;;;14.95;13.65;;;;;;;19.55;93.14;98974.31;5047010;27;102619;-68
2022/07/24 04:23:36;;;;;;;18.83;17.05;;;;;;;19.56;93.06;98970.66;5048784;27;102672;-68
2022/07/24 04:26:05;;;;;;;14.70;13.45;;;;;;;19.72;92.01;98969.88;5046703;27;103741;-71
2022/07/24 04:28:33;;;;;;;19.23;17.38;;;;;;;19.78;91.73;98975.44;5049101;27;103299;-69
2022/07/24 04:31:01;;;;;;;17.45;15.88;;;;;;;19.89;91.39;98983.19;5045398;27;102911;-69
2022/07/24 04:33:31;;;;;;;16.30;14.80;;;;;;;20.02;90.16;98982.69;5044184;27;102633;-69
2022/07/24 04:35:58;;;;;;;11.95;10.93;;;;;;;20.18;87.81;98982.75;5041789;27;103852;-68
2022/07/24 04:38:26;;;;;;;10.95;10.05;;;;;;;20.32;86.11;98981.31;5044585;27;103796;-68
2022/07/24 04:40:54;;;;;;;10.50;9.60;;;;;;;20.44;84.23;98977.28;5044790;27;102627;-69
2022/07/24 04:43:22;;;;;;;11.85;10.75;;;;;;;20.49;83.33;98983.00;5044008;27;104096;-69
2022/07/24 04:45:50;;;;;;;11.57;10.55;;;;;;;20.55;82.88;98985.00;5043230;27;104075;-68
2022/07/24 04:48:18;;;;;;;24.73;16.65;;;;;;;20.29;90.01;98982.47;5051231;27;102976;-68
2022/07/24 04:50:47;;;;;;;19.40;15.52;;;;;;;20.19;90.49;98989.78;5048745;27;102750;-69
2022/07/24 04:53:15;;;;;;;14.35;13.15;;;;;;;20.29;87.10;98978.94;5046890;27;103611;-68
2022/07/24 04:55:43;;;;;;;16.35;14.85;;;;;;;20.13;89.35;98975.19;5052158;27;104064;-68
2022/07/24 04:58:10;;;;;;;17.50;15.98;;;;;;;20.16;89.57;98984.75;5046001;27;104663;-69
2022/07/24 05:00:41;;;;;;;13.60;11.32;;;;;;;20.36;87.79;98991.53;5048661;27;103069;-69
2022/07/24 05:03:09;;;;;;;10.85;9.80;;;;;;;20.58;86.41;98990.88;5044256;27;103210;-69
2022/07/24 05:05:36;;;;;;;10.45;9.65;;;;;;;20.74;85.84;98995.44;5040623;27;103350;-69
2022/07/24 05:08:06;;;;;;;13.30;12.00;;;;;;;20.73;85.87;98991.06;5047648;27;103185;-71
2022/07/24 05:10:33;;;;;;;16.58;15.20;;;;;;;20.60;86.67;99002.28;5046050;27;102707;-70
2022/07/24 05:13:01;;;;;;;18.60;16.80;;;;;;;20.47;88.13;98998.41;5052031;27;102661;-71
2022/07/24 05:15:30;;;;;;;18.33;16.63;;;;;;;20.57;87.80;98999.94;5051832;27;103281;-69
2022/07/24 05:17:58;;;;;;;14.40;13.07;;;;;;;20.57;87.60;99008.00;5049064;27;104203;-69
2022/07/24 05:20:27;;;;;;;15.45;14.10;;;;;;;20.64;87.26;99000.09;5053006;27;102668;-68
2022/07/24 05:22:54;;;;;;;12.70;11.60;;;;;;;20.78;86.19;99002.13;5042500;27;103761;-67
2022/07/24 05:25:24;;;;;;;14.88;13.43;;;;;;;21.00;85.75;99001.44;5044550;27;104304;-67
2022/07/24 05:27:52;;;;;;;17.02;15.43;;;;;;;20.78;86.92;99002.13;5043742;27;103324;-67
2022/07/24 05:30:20;;;;;;;12.52;11.52;;;;;;;21.11;85.49;98998.44;5047287;27;102742;-66
2022/07/24 05:32:47;;;;;;;12.63;11.52;;;;;;;21.36;84.16;99008.13;5050201;27;104102;-67
2022/07/24 05:35:15;;;;;;;15.45;14.05;;;;;;;21.28;84.63;99005.44;5049213;27;103241;-67
2022/07/24 05:37:55;;;;;;;14.80;13.52;;;;;;;21.40;84.25;98992.50;5043824;27;104235;-67
2022/07/24 05:40:25;;;;;;;15.13;13.57;;;;;;;21.59;83.97;98996.63;5049799;27;102734;-69
2022/07/24 05:42:52;;;;;;;10.40;9.60;;;;;;;21.68;83.42;98991.06;5048302;27;102910;-69
2022/07/24 05:45:20;;;;;;;15.40;14.10;;;;;;;21.56;83.94;98988.94;5045686;27;103930;-69
2022/07/24 05:47:48;;;;;;;13.77;12.45;;;;;;;21.32;85.90;98996.06;5045081;27;103328;-70
2022/07/24 05:50:16;;;;;;;13.65;12.50;;;;;;;21.72;83.36;98989.72;5045516;27;102590;-68
2022/07/24 05:52:44;;;;;;;12.05;10.95;;;;;;;21.92;82.00;98982.91;5040623;27;102706;-68
2022/07/24 05:55:12;;;;;;;10.80;9.90;;;;;;;22.17;80.71;98991.72;5045625;27;104170;-68
2022/07/24 05:57:45;;;;;;;16.50;14.80;;;;;;;21.98;82.13;98989.44;5050435;27;103638;-69
2022/07/24 06:00:14;;;;;;;15.65;14.13;;;;;;;22.18;81.14;98987.13;5029813;27;103094;-69
2022/07/24 06:02:45;;;;;;;15.00;13.70;;;;;;;22.25;81.18;98994.34;5037973;27;104311;-69
2022/07/24 06:05:13;;;;;;;13.65;12.45;;;;;;;22.36;80.56;98991.25;5030404;27;103859;-69
2022/07/24 06:07:42;;;;;;;14.15;12.85;;;;;;;22.62;79.29;98998.13;5043076;27;104483;-69
2022/07/24 06:10:11;;;;;;;11.60;10.50;;;;;;;22.76;78.11;98992.84;5035328;27;102815;-69
2022/07/24 06:12:42;;;;;;;11.95;10.85;;;;;;;22.89;77.53;98992.22;5040599;27;102735;-69
2022/07/24 06:15:14;;;;;;;11.55;10.52;;;;;;;23.05;76.64;98995.59;5037488;27;103348;-69
2022/07/24 06:17:42;;;;;;;12.63;11.60;;;;;;;23.18;76.24;98991.44;5031631;27;103829;-69
2022/07/24 06:20:12;;;;;;;11.25;10.25;;;;;;;23.09;76.23;98993.38;5038005;27;102826;-69
2022/07/24 06:22:41;;;;;;;11.13;10.02;;;;;;;23.29;75.50;98989.13;5029720;27;102800;-69
2022/07/24 06:25:16;;;;;;;10.60;9.70;;;;;;;23.42;74.86;98989.34;5039456;27;103337;-69
2022/07/24 06:27:45;;;;;;;10.65;9.68;;;;;;;23.48;73.93;98995.84;5040691;27;103193;-69
2022/07/24 06:30:16;;;;;;;9.35;8.55;;;;;;;23.56;73.46;98995.75;5035764;27;103144;-69
2022/07/24 06:32:44;;;;;;;12.65;11.68;;;;;;;23.30;74.22;98998.06;5042927;27;102627;-69
2022/07/24 06:35:13;;;;;;;11.35;10.45;;;;;;;23.64;73.49;98999.22;5037641;27;104083;-69
2022/07/24 06:37:41;;;;;;;11.98;10.88;;;;;;;23.68;72.39;98996.97;5037309;27;103454;-69
2022/07/24 06:40:14;;;;;;;10.18;9.40;;;;;;;23.91;72.04;98994.16;5042031;27;102614;-70
2022/07/24 06:42:42;;;;;;;10.35;9.35;;;;;;;23.67;72.14;98988.03;5035986;27;104259;-71
2022/07/24 06:45:11;;;;;;;9.85;9.05;;;;;;;23.88;72.85;98984.59;5037236;27;103279;-69
2022/07/24 06:47:40;;;;;;;13.05;11.90;;;;;;;24.01;70.53;98986.59;5042353;27;103311;-71
2022/07/24 06:50:09;;;;;;;9.95;9.15;;;;;;;24.06;71.82;98987.72;5044198;27;102766;-71
2022/07/24 06:52:37;;;;;;;12.50;11.50;;;;;;;24.20;71.00;98986.88;5065201;27;104181;-71
2022/07/24 06:55:06;;;;;;;14.60;12.25;;;;;;;24.30;70.23;98983.03;5041178;27;103265;-68
2022/07/24 06:57:35;;;;;;;12.10;11.10;;;;;;;24.25;69.90;98978.22;5045578;27;103263;-68
2022/07/24 07:00:04;;;;;;;11.77;10.77;;;;;;;24.49;69.53;98977.84;5036775;27;102866;-68
2022/07/24 07:02:32;;;;;;;11.15;10.18;;;;;;;24.71;68.16;98982.19;5047869;27;103427;-68
2022/07/24 07:05:02;;;;;;;11.88;10.70;;;;;;;24.85;67.01;98976.94;5046331;27;103245;-68
2022/07/24 07:07:30;;;;;;;11.10;10.10;;;;;;;24.98;66.13;98975.22;5042593;27;103421;-68
2022/07/24 07:09:58;;;;;;;10.50;9.70;;;;;;;25.23;65.51;98981.00;5047465;27;102652;-68
2022/07/24 07:12:26;;;;;;;12.00;10.68;;;;;;;24.47;63.98;98985.31;5056090;27;102697;-69
2022/07/24 07:14:53;;;;;;;11.40;10.50;;;;;;;24.62;65.15;98982.50;5045516;27;104121;-68
2022/07/24 07:17:21;;;;;;;11.20;10.05;;;;;;;24.51;65.90;98986.56;5041540;27;104167;-69
2022/07/24 07:19:49;;;;;;;11.40;10.30;;;;;;;25.14;64.70;98990.28;5041664;27;102779;-69
2022/07/24 07:22:18;;;;;;;8.85;8.10;;;;;;;25.29;64.28;98977.50;5045927;27;103695;-68
2022/07/24 07:24:46;;;;;;;10.43;9.52;;;;;;;25.65;63.48;98989.00;5050417;27;103362;-68
2022/07/24 07:27:14;;;;;;;10.85;9.02;;;;;;;25.87;62.09;98978.91;5041215;27;102939;-68
2022/07/24 07:29:42;;;;;;;9.35;8.57;;;;;;;26.27;60.17;98988.06;5047874;27;102775;-68
2022/07/24 07:32:12;;;;;;;9.85;9.05;;;;;;;26.19;59.36;98985.53;5053032;27;103990;-68
2022/07/24 07:34:40;;;;;;;10.25;9.30;;;;;;;26.27;59.43;98982.63;5043081;27;103374;-68
2022/07/24 07:37:08;;;;;;;9.60;8.65;;;;;;;26.58;59.16;98980.19;5043181;27;102966;-68
2022/07/24 07:39:37;;;;;;;7.57;6.97;;;;;;;26.95;59.36;98979.63;5049276;27;102565;-69
2022/07/24 07:42:05;;;;;;;7.55;6.93;;;;;;;27.16;55.50;98985.88;5048917;27;103723;-68
2022/07/24 07:44:33;;;;;;;7.97;7.35;;;;;;;27.26;56.13;98991.69;5046982;27;103998;-69
2022/07/24 07:47:01;;;;;;;8.00;7.38;;;;;;;27.59;55.24;98989.81;5044494;27;103206;-68
2022/07/24 07:49:29;;;;;;;9.65;8.88;;;;;;;27.82;53.74;98987.44;5039163;27;103760;-68
2022/07/24 07:51:57;;;;;;;6.97;6.38;;;;;;;27.98;52.96;98984.25;5043898;27;103805;-71
2022/07/24 07:54:25;;;;;;;8.32;7.18;;;;;;;28.18;55.70;98986.94;5052720;27;103688;-68
2022/07/24 07:56:54;;;;;;;6.65;6.15;;;;;;;28.47;52.86;98985.50;5043815;27;103415;-69
2022/07/24 07:59:22;;;;;;;9.80;8.80;;;;;;;27.69;54.46;98994.78;5048626;27;102639;-69
2022/07/24 08:01:50;;;;;;;8.20;7.50;;;;;;;27.59;54.27;98987.09;5052086;27;105249;-68
2022/07/24 08:04:18;;;;;;;8.52;7.80;;;;;;;28.34;52.15;98983.69;5045483;27;103405;-68
2022/07/24 08:06:46;;;;;;;8.55;7.78;;;;;;;29.23;50.54;98988.94;5050086;27;104516;-68
2022/07/24 08:09:16;;;;;;;7.07;6.38;;;;;;;29.20;52.84;98984.75;5037120;27;102805;-69
2022/07/24 08:11:50;;;;;;;8.43;7.72;;;;;;;29.37;50.15;98986.94;5048037;27;102711;-68
2022/07/24 08:14:19;;;;;;;7.93;6.85;;;;;;;29.19;49.91;98985.81;5047206;27;103294;-71
2022/07/24 08:16:47;;;;;;;7.63;6.63;;;;;;;29.60;50.43;98978.94;5045781;27;103037;-69
2022/07/24 08:19:15;;;;;;;8.73;8.02;;;;;;;28.88;47.93;98983.16;5046384;27;103757;-69
2022/07/24 08:21:45;;;;;;;7.43;6.82;;;;;;;29.43;48.91;98976.00;5057301;27;103667;-69
2022/07/24 08:24:13;;;;;;;6.97;6.38;;;;;;;29.75;48.06;98969.38;5047212;27;103439;-69
2022/07/24 08:26:41;;;;;;;7.93;7.22;;;;;;;29.78;46.67;98963.44;5045006;27;107399;-69
2022/07/24 08:29:11;;;;;;;7.68;6.97;;;;;;;29.29;49.21;98967.13;5044798;27;104516;-69
2022/07/24 08:31:40;;;;;;;7.78;7.18;;;;;;;30.03;48.49;98966.13;5047220;27;103688;-69
2022/07/24 08:34:08;;;;;;;8.75;7.72;;;;;;;30.18;49.07;98958.38;5042789;27;103370;-70
2022/07/24 08:36:36;;;;;;;8.45;7.50;;;;;;;30.41;44.37;98969.41;5049027;27;103181;-70
2022/07/24 08:39:04;;;;;;;8.30;6.60;;;;;;;30.06;47.55;98953.94;5044404;27;102941;-70
2022/07/24 08:41:38;;;;;;;8.30;7.60;;;;;;;30.64;46.32;98956.91;5035866;27;103614;-69
2022/07/24 08:44:06;;;;;;;7.40;6.72;;;;;;;31.73;45.61;98950.81;5045339;27;103494;-69
2022/07/24 08:46:38;;;;;;;8.50;7.80;;;;;;;31.65;44.39;98953.91;5040598;27;103894;-69
2022/07/24 08:49:12;;;;;;;8.13;7.43;;;;;;;31.86;49.12;98953.31;5043147;27;102651;-69
2022/07/24 08:51:42;;;;;;;8.40;7.70;;;;;;;32.26;43.39;98950.56;5045062;27;103350;-69
2022/07/24 08:54:12;;;;;;;7.40;6.80;;;;;;;32.63;42.00;98954.56;5049950;27;103940;-69
2022/07/24 08:56:43;;;;;;;7.40;6.82;;;;;;;32.68;44.17;98957.41;5040451;27;103191;-69
2022/07/24 08:59:18;;;;;;;7.50;6.90;;;;;;;32.82;41.38;98955.16;5039942;27;102752;-69
2022/07/24 09:01:52;;;;;;;7.53;6.93;;;;;;;33.21;40.90;98954.19;5043765;27;103958;-69
2022/07/24 09:04:36;;;;;;;7.18;6.57;;;;;;;33.35;42.84;98957.44;5042472;27;103992;-69
2022/07/24 09:07:07;;;;;;;8.70;7.90;;;;;;;33.93;40.80;98954.97;5037801;27;104223;-69
2022/07/24 09:09:37;;;;;;;8.20;7.60;;;;;;;34.12;39.92;98955.50;5036753;27;102986;-69
2022/07/24 09:12:12;;;;;;;8.07;7.35;;;;;;;33.92;41.58;98956.06;5043266;27;104621;-68
2022/07/24 09:14:42;;;;;;;8.35;7.57;;;;;;;33.43;39.86;98957.84;5035830;27;103735;-69
2022/07/24 09:17:12;;;;;;;7.90;7.30;;;;;;;34.41;38.34;98948.72;5032623;27;104176;-69
2022/07/24 09:19:53;;;;;;;8.82;7.93;;;;;;;33.86;38.20;98946.09;5043121;27;102586;-69
2022/07/24 09:22:27;;;;;;;8.50;7.70;;;;;;;34.73;39.45;98949.59;5038720;27;104402;-69
2022/07/24 09:25:13;;;;;;;9.73;7.90;;;;;;;32.37;39.71;98958.72;5041875;27;103999;-69
2022/07/24 09:27:47;;;;;;;8.55;7.75;;;;;;;32.40;39.44;98946.47;5042131;27;103348;-71
2022/07/24 09:30:28;;;;;;;8.70;8.00;;;;;;;33.05;39.51;98957.75;5042937;27;103053;-69
2022/07/24 09:32:59;;;;;;;8.50;7.80;;;;;;;33.76;37.98;98941.34;5043618;27;103609;-70
2022/07/24 09:35:33;;;;;;;9.10;8.20;;;;;;;33.11;38.71;98943.09;5040464;27;103720;-70
2022/07/24 09:38:02;;;;;;;9.70;8.80;;;;;;;32.98;39.29;98951.63;5039395;27;103216;-70
2022/07/24 09:40:32;;;;;;;9.02;8.32;;;;;;;32.20;38.51;98946.09;5043796;27;102934;-70
2022/07/24 09:43:18;;;;;;;7.88;7.30;;;;;;;33.77;39.56;98942.97;5041485;27;103907;-71
2022/07/24 09:46:00;;;;;;;8.47;7.67;;;;;;;34.38;38.91;98943.75;5047994;27;103598;-70
2022/07/24 09:48:33;;;;;;;9.03;8.33;;;;;;;33.46;37.20;98943.63;5047557;27;103347;-70
2022/07/24 09:51:05;;;;;;;8.90;8.10;;;;;;;33.15;36.86;98942.34;5044076;27;103203;-70
2022/07/24 09:53:38;;;;;;;8.90;8.20;;;;;;;32.17;41.58;98944.66;5046883;27;103875;-70
2022/07/24 09:56:11;;;;;;;9.95;8.98;;;;;;;32.86;39.08;98938.03;5044732;27;103701;-69
2022/07/24 09:58:42;;;;;;;8.77;7.70;;;;;;;34.02;37.84;98936.19;5043106;27;103237;-70
2022/07/24 10:01:10;;;;;;;8.03;7.43;;;;;;;34.85;39.97;98932.97;5044940;27;103048;-69
2022/07/24 10:03:42;;;;;;;8.40;7.63;;;;;;;32.81;39.77;98931.66;5044157;27;104187;-69
2022/07/24 10:06:14;;;;;;;7.83;7.13;;;;;;;32.28;40.02;98921.94;5043068;27;103283;-69
2022/07/24 10:08:45;;;;;;;9.10;8.30;;;;;;;31.69;40.66;98939.56;5043696;27;103216;-69
2022/07/24 10:11:13;;;;;;;8.30;7.70;;;;;;;32.36;39.31;98927.00;5038906;27;102986;-68
2022/07/24 10:13:42;;;;;;;8.52;7.72;;;;;;;32.80;38.24;98928.06;5048427;27;103802;-68
2022/07/24 10:16:27;;;;;;;9.32;8.63;;;;;;;33.14;38.08;98921.53;5043023;27;103900;-69
2022/07/24 10:18:57;;;;;;;9.48;8.57;;;;;;;32.86;40.98;98916.13;5045251;27;103261;-68
2022/07/24 10:21:28;;;;;;;8.60;7.90;;;;;;;34.00;38.35;98913.66;5045503;27;104641;-68
2022/07/24 10:24:44;;;;;;;14.80;13.70;;;;;;;34.65;38.22;98911.66;5042809;27;103797;-69
2022/07/24 10:27:24;;;;;;;8.40;7.70;;;;;;;34.50;35.67;98908.75;5045800;27;102920;-71
2022/07/24 10:29:54;;;;;;;8.57;7.87;;;;;;;32.79;37.78;98911.91;5049767;27;103280;-69
2022/07/24 10:32:23;;;;;;;7.85;7.25;;;;;;;33.28;36.91;98911.06;5044009;27;103031;-70
2022/07/24 10:35:10;;;;;;;8.10;7.30;;;;;;;34.00;36.15;98908.19;5045360;27;102885;-73
2022/07/24 10:38:00;;;;;;;8.03;7.33;;;;;;;34.97;34.12;98908.09;5045173;27;104410;-71
2022/07/24 10:40:34;;;;;;;8.23;7.57;;;;;;;35.08;34.40;98907.09;5046027;27;103305;-71
2022/07/24 10:43:11;;;;;;;8.23;7.60;;;;;;;35.53;35.30;98901.06;5045545;27;104433;-71
2022/07/24 10:45:43;;;;;;;7.80;7.17;;;;;;;34.01;35.80;98894.25;5054392;27;103263;-70
2022/07/24 10:48:30;;;;;;;8.55;7.68;;;;;;;33.68;35.73;98891.66;5043587;27;103928;-71
2022/07/24 10:51:05;;;;;;;7.65;7.05;;;;;;;34.66;36.53;98894.13;5045165;27;103400;-69
2022/07/24 10:53:46;;;;;;;8.32;7.57;;;;;;;34.95;35.53;98894.59;5038297;27;102920;-69
2022/07/24 10:56:16;;;;;;;8.48;7.68;;;;;;;34.18;36.72;98892.25;5047714;27;103889;-69
2022/07/24 10:59:03;;;;;;;8.17;7.53;;;;;;;34.65;37.13;98894.38;5047807;27;102770;-69
2022/07/24 11:01:38;;;;;;;8.45;7.80;;;;;;;32.51;36.85;98888.97;5050107;27;102935;-70
2022/07/24 11:04:31;;;;;;;9.48;8.32;;;;;;;32.48;37.61;98896.84;5048883;27;102806;-70
2022/07/24 11:07:11;;;;;;;8.13;7.47;;;;;;;33.52;37.21;98890.59;5045809;27;104454;-69
2022/07/24 11:10:00;;;;;;;8.38;7.63;;;;;;;33.35;37.62;98889.78;5045063;27;103356;-69
2022/07/24 11:12:30;;;;;;;8.70;8.00;;;;;;;32.50;37.84;98887.34;5047212;27;103133;-69
2022/07/24 11:17:53;;;;;;;7.70;7.10;;;;;;;32.87;37.37;98875.94;5046910;27;103874;-70
2022/07/24 11:20:22;;;;;;;8.60;7.97;;;;;;;32.05;38.40;98879.16;5044360;27;103976;-70
2022/07/24 11:22:52;;;;;;;8.02;7.32;;;;;;;32.98;37.73;98872.28;5046689;27;103231;-70
2022/07/24 11:25:26;;;;;;;9.23;8.43;;;;;;;33.34;38.10;98866.25;5047250;27;102935;-69
2022/07/24 11:27:57;;;;;;;8.40;7.80;;;;;;;33.22;37.00;98865.53;5047282;27;102823;-71
2022/07/24 11:30:27;;;;;;;8.27;7.47;;;;;;;33.10;36.47;98864.81;5044537;27;104168;-70
2022/07/24 11:32:56;;;;;;;7.68;7.07;;;;;;;34.22;37.52;98863.22;5051070;27;103314;-70